Time;durP1;ratioP1;P1;durP2;ratioP2;P2;SDS_P1;SDS_P2;PMS_P1;PMS_P2;Temp;Humidity;BMP_temperature;BMP_pressure;BME280_temperature;BME280_humidity;BME280_pressure;Samples;Min_cycle;Max_cycle;Signal;HPM_P1;HPM_P2
2022/01/07 00:01:02;;;;;;;13.43;5.35;;;;;;;;;;5069956;28;20059;-77
2022/01/07 00:03:29;;;;;;;13.77;5.53;;;;;;;;;;5053314;28;20036;-77
2022/01/07 00:05:55;;;;;;;13.25;5.10;;;;;;;;;;5069845;28;20145;-80
2022/01/07 00:08:21;;;;;;;14.18;4.72;;;;;;;;;;5071384;28;20076;-79
2022/01/07 00:10:47;;;;;;;13.32;5.57;;;;;;;;;;5052781;28;20040;-79
2022/01/07 00:13:13;;;;;;;15.65;4.82;;;;;;;;;;5069424;28;20094;-80
2022/01/07 00:15:40;;;;;;;16.08;5.57;;;;;;;;;;5069589;28;20079;-77
2022/01/07 00:18:06;;;;;;;13.45;4.47;;;;;;;;;;5052811;28;20060;-79
2022/01/07 00:20:33;;;;;;;16.65;5.72;;;;;;;;;;5071131;28;20051;-77
2022/01/07 00:22:59;;;;;;;12.82;4.60;;;;;;;;;;5070081;28;20460;-77
2022/01/07 00:25:25;;;;;;;15.98;5.35;;;;;;;;;;5069832;28;20488;-77
2022/01/07 00:27:51;;;;;;;12.80;5.10;;;;;;;;;;5069172;28;20063;-77
2022/01/07 00:30:19;;;;;;;12.88;5.13;;;;;;;;;;5069235;28;20048;-77
2022/01/07 00:32:46;;;;;;;13.38;4.75;;;;;;;;;;5068854;28;20055;-77
2022/01/07 00:35:13;;;;;;;12.30;4.40;;;;;;;;;;5069785;28;20076;-77
2022/01/07 00:37:39;;;;;;;16.27;5.25;;;;;;;;;;5068950;28;20051;-78
2022/01/07 00:40:06;;;;;;;13.05;4.85;;;;;;;;;;5069440;28;20053;-78
2022/01/07 00:42:32;;;;;;;15.13;5.47;;;;;;;;;;5069084;28;20105;-77
2022/01/07 00:44:58;;;;;;;13.55;4.65;;;;;;;;;;5069288;28;20045;-77
2022/01/07 00:47:25;;;;;;;15.00;5.57;;;;;;;;;;5068487;28;20045;-78
2022/01/07 00:49:51;;;;;;;12.75;4.97;;;;;;;;;;5068693;28;20040;-78
2022/01/07 00:52:17;;;;;;;13.02;5.05;;;;;;;;;;5069528;28;20048;-78
2022/01/07 00:54:43;;;;;;;14.48;5.15;;;;;;;;;;5052236;28;20047;-77
2022/01/07 00:57:09;;;;;;;16.75;5.85;;;;;;;;;;5052868;28;20511;-78
2022/01/07 00:59:35;;;;;;;14.18;5.35;;;;;;;;;;5068618;28;20048;-78
2022/01/07 01:02:02;;;;;;;17.20;6.03;;;;;;;;;;5069499;28;20058;-78
2022/01/07 01:04:28;;;;;;;14.13;6.00;;;;;;;;;;5069547;28;20048;-78
2022/01/07 01:06:54;;;;;;;16.48;6.13;;;;;;;;;;5068686;28;20117;-77
2022/01/07 01:09:20;;;;;;;17.15;6.72;;;;;;;;;;5069184;28;20036;-78
2022/01/07 01:11:47;;;;;;;14.70;6.00;;;;;;;;;;5068834;28;20044;-78
2022/01/07 01:14:13;;;;;;;13.70;6.00;;;;;;;;;;5069491;28;20040;-77
2022/01/07 01:16:39;;;;;;;13.93;6.10;;;;;;;;;;5068318;28;20263;-78
2022/01/07 01:19:05;;;;;;;14.25;6.57;;;;;;;;;;5069048;28;20072;-79
2022/01/07 01:21:32;;;;;;;18.58;7.00;;;;;;;;;;5069173;28;20486;-80
2022/01/07 01:23:58;;;;;;;19.48;7.70;;;;;;;;;;5051980;28;20036;-81
2022/01/07 01:26:24;;;;;;;16.52;6.90;;;;;;;;;;5069028;28;20044;-80
2022/01/07 01:28:51;;;;;;;16.58;6.78;;;;;;;;;;5068319;28;20135;-80
2022/01/07 01:31:18;;;;;;;20.17;7.90;;;;;;;;;;5068890;28;20049;-80
2022/01/07 01:33:45;;;;;;;17.13;7.90;;;;;;;;;;5068574;28;20483;-80
2022/01/07 01:36:11;;;;;;;15.60;7.78;;;;;;;;;;5069303;28;20495;-80
2022/01/07 01:38:38;;;;;;;25.48;7.78;;;;;;;;;;5069158;28;20562;-80
2022/01/07 01:41:05;;;;;;;20.98;8.60;;;;;;;;;;5069372;28;20488;-80
2022/01/07 01:43:31;;;;;;;15.43;7.63;;;;;;;;;;5068196;28;20071;-80
2022/01/07 01:45:57;;;;;;;21.90;8.85;;;;;;;;;;5068667;28;20048;-80
2022/01/07 01:48:23;;;;;;;16.80;7.88;;;;;;;;;;5069029;28;20056;-80
2022/01/07 01:50:51;;;;;;;18.02;8.70;;;;;;;;;;5068444;28;20324;-80
2022/01/07 01:53:17;;;;;;;23.92;8.23;;;;;;;;;;5070227;28;20083;-80
2022/01/07 01:55:44;;;;;;;19.00;9.10;;;;;;;;;;5052465;28;20508;-81
2022/01/07 01:58:11;;;;;;;20.95;8.63;;;;;;;;;;5052259;28;20040;-78
2022/01/07 02:00:37;;;;;;;19.38;9.18;;;;;;;;;;5069692;28;20063;-77
2022/01/07 02:03:04;;;;;;;18.13;8.77;;;;;;;;;;5073150;28;20049;-78
2022/01/07 02:05:31;;;;;;;20.75;9.10;;;;;;;;;;5073029;28;20055;-80
2022/01/07 02:07:57;;;;;;;19.25;9.15;;;;;;;;;;5072620;28;20522;-80
2022/01/07 02:10:23;;;;;;;22.88;9.73;;;;;;;;;;5055993;28;20100;-79
2022/01/07 02:12:49;;;;;;;26.25;9.68;;;;;;;;;;5072393;28;20037;-78
2022/01/07 02:15:16;;;;;;;19.48;9.43;;;;;;;;;;5106071;28;20037;-77
2022/01/07 02:17:43;;;;;;;18.05;9.15;;;;;;;;;;5055389;28;20044;-77
2022/01/07 02:20:10;;;;;;;24.42;9.93;;;;;;;;;;5072277;28;20040;-77
2022/01/07 02:22:36;;;;;;;17.50;9.32;;;;;;;;;;5055868;28;20483;-78
2022/01/07 02:25:02;;;;;;;21.45;9.88;;;;;;;;;;5057018;28;20159;-79
2022/01/07 02:27:29;;;;;;;24.48;10.02;;;;;;;;;;5073985;28;20079;-78
2022/01/07 02:29:55;;;;;;;19.20;10.13;;;;;;;;;;5072723;28;20555;-80
2022/01/07 02:32:21;;;;;;;20.02;10.50;;;;;;;;;;5057839;28;20052;-80
2022/01/07 02:34:48;;;;;;;21.98;10.30;;;;;;;;;;5073864;28;20495;-80
2022/01/07 02:37:14;;;;;;;21.98;10.50;;;;;;;;;;5073717;28;20081;-80
2022/01/07 02:39:40;;;;;;;24.13;11.13;;;;;;;;;;5055886;28;20500;-78
2022/01/07 02:42:06;;;;;;;22.35;9.88;;;;;;;;;;5071756;28;20079;-80
2022/01/07 02:44:33;;;;;;;19.85;9.43;;;;;;;;;;5071942;28;20515;-81
2022/01/07 02:46:59;;;;;;;18.30;9.23;;;;;;;;;;5071909;28;20106;-80
2022/01/07 02:49:25;;;;;;;21.33;10.15;;;;;;;;;;5071593;28;20127;-80
2022/01/07 02:51:51;;;;;;;20.70;10.55;;;;;;;;;;5054880;28;20040;-80
2022/01/07 02:54:17;;;;;;;23.52;10.05;;;;;;;;;;5072305;28;20059;-80
2022/01/07 02:56:44;;;;;;;26.08;11.27;;;;;;;;;;5055080;28;20163;-80
2022/01/07 02:59:10;;;;;;;20.95;10.57;;;;;;;;;;5066900;28;20036;-81
2022/01/07 03:01:37;;;;;;;23.45;11.15;;;;;;;;;;5063858;28;20044;-80
2022/01/07 03:04:03;;;;;;;18.88;10.00;;;;;;;;;;5070547;28;20040;-80
2022/01/07 03:06:30;;;;;;;21.10;10.25;;;;;;;;;;5070858;28;20035;-80
2022/01/07 03:08:56;;;;;;;25.38;11.68;;;;;;;;;;5054321;28;20044;-79
2022/01/07 03:11:23;;;;;;;22.23;10.45;;;;;;;;;;5065986;28;20048;-77
2022/01/07 03:13:49;;;;;;;24.63;11.10;;;;;;;;;;5042121;28;20063;-77
2022/01/07 03:16:15;;;;;;;23.75;10.48;;;;;;;;;;5048514;28;20056;-76
2022/01/07 03:18:42;;;;;;;20.55;9.73;;;;;;;;;;5060489;28;20476;-80
2022/01/07 03:21:08;;;;;;;21.30;11.30;;;;;;;;;;5039186;28;20045;-80
2022/01/07 03:23:36;;;;;;;22.33;10.55;;;;;;;;;;5051075;28;20149;-80
2022/01/07 03:26:02;;;;;;;21.90;11.05;;;;;;;;;;5051451;28;20047;-78
2022/01/07 03:28:28;;;;;;;21.52;10.40;;;;;;;;;;5073612;28;20493;-80
2022/01/07 03:30:55;;;;;;;22.40;10.73;;;;;;;;;;5071306;28;20049;-79
2022/01/07 03:33:21;;;;;;;22.02;10.38;;;;;;;;;;5055756;28;20115;-80
2022/01/07 03:35:47;;;;;;;20.35;11.00;;;;;;;;;;5059988;28;20400;-80
2022/01/07 03:38:14;;;;;;;16.48;10.20;;;;;;;;;;5056072;28;20033;-80
2022/01/07 03:40:40;;;;;;;20.83;10.73;;;;;;;;;;5058942;28;20063;-80
2022/01/07 03:43:08;;;;;;;17.27;10.52;;;;;;;;;;5059194;28;20128;-80
2022/01/07 03:45:34;;;;;;;18.98;10.85;;;;;;;;;;5066895;28;20381;-80
2022/01/07 03:48:00;;;;;;;17.70;10.30;;;;;;;;;;5064209;28;20044;-80
2022/01/07 03:50:28;;;;;;;17.58;10.77;;;;;;;;;;5053009;28;20064;-78
2022/01/07 03:52:55;;;;;;;23.10;9.93;;;;;;;;;;5050599;28;20060;-78
2022/01/07 03:55:23;;;;;;;18.55;9.88;;;;;;;;;;5050309;28;20040;-78
2022/01/07 03:57:50;;;;;;;19.67;9.57;;;;;;;;;;5051427;28;20039;-78
2022/01/07 04:00:21;;;;;;;17.75;10.18;;;;;;;;;;5050545;28;20049;-78
2022/01/07 04:02:48;;;;;;;17.95;10.10;;;;;;;;;;5057054;28;20049;-78
2022/01/07 04:05:15;;;;;;;16.23;10.02;;;;;;;;;;5056664;28;20095;-79
2022/01/07 04:07:42;;;;;;;17.70;10.60;;;;;;;;;;5064117;28;20044;-78
2022/01/07 04:10:08;;;;;;;17.83;10.30;;;;;;;;;;5061264;28;20051;-78
2022/01/07 04:12:34;;;;;;;17.10;9.30;;;;;;;;;;5052683;28;20041;-78
2022/01/07 04:15:08;;;;;;;17.60;10.98;;;;;;;;;;5051206;28;20366;-81
2022/01/07 04:17:35;;;;;;;19.13;10.80;;;;;;;;;;5064245;28;20044;-80
2022/01/07 04:20:01;;;;;;;19.17;10.82;;;;;;;;;;5050429;28;20472;-80
2022/01/07 04:22:28;;;;;;;18.33;9.77;;;;;;;;;;5049331;28;20052;-81
2022/01/07 04:24:54;;;;;;;21.05;10.43;;;;;;;;;;5062247;28;20094;-78
2022/01/07 04:27:20;;;;;;;15.35;9.38;;;;;;;;;;5045384;28;20495;-78
2022/01/07 04:29:47;;;;;;;15.90;10.02;;;;;;;;;;5050511;28;20048;-78
2022/01/07 04:32:13;;;;;;;19.38;10.10;;;;;;;;;;5067135;28;20430;-80
2022/01/07 04:34:39;;;;;;;15.23;9.55;;;;;;;;;;5038631;28;20517;-81
2022/01/07 04:37:05;;;;;;;16.35;9.07;;;;;;;;;;5062655;28;20036;-81
2022/01/07 04:39:32;;;;;;;19.83;9.98;;;;;;;;;;5067344;28;20072;-80
2022/01/07 04:41:59;;;;;;;17.73;9.73;;;;;;;;;;5050177;28;20091;-80
2022/01/07 04:44:25;;;;;;;20.42;10.02;;;;;;;;;;5049350;28;20079;-79
2022/01/07 04:46:52;;;;;;;17.20;9.75;;;;;;;;;;5054127;28;20050;-81
2022/01/07 04:49:18;;;;;;;17.23;9.55;;;;;;;;;;5058206;28;20485;-80
2022/01/07 04:51:44;;;;;;;14.00;9.52;;;;;;;;;;5063636;28;20047;-78
2022/01/07 04:54:10;;;;;;;17.92;10.00;;;;;;;;;;5048714;28;20107;-78
2022/01/07 04:56:36;;;;;;;17.92;10.27;;;;;;;;;;5048466;28;20115;-78
2022/01/07 04:59:02;;;;;;;15.00;9.55;;;;;;;;;;5049665;28;20053;-78
2022/01/07 05:01:28;;;;;;;16.40;9.40;;;;;;;;;;5065657;28;20508;-80
2022/01/07 05:03:54;;;;;;;14.98;9.73;;;;;;;;;;5054087;28;20383;-81
2022/01/07 05:09:05;;;;;;;16.65;8.90;;;;;;;;;;5084857;28;20080;-78
2022/01/07 05:11:31;;;;;;;10.88;7.07;;;;;;;;;;5061597;28;20496;-78
2022/01/07 05:13:57;;;;;;;16.50;9.32;;;;;;;;;;5049265;28;20499;-78
2022/01/07 05:16:24;;;;;;;15.43;9.70;;;;;;;;;;5063299;28;20033;-79
2022/01/07 05:18:50;;;;;;;14.38;9.10;;;;;;;;;;5065125;28;20045;-80
2022/01/07 05:21:16;;;;;;;15.27;8.90;;;;;;;;;;5063058;28;20041;-81
2022/01/07 05:23:42;;;;;;;13.38;8.90;;;;;;;;;;5058682;28;20055;-79
2022/01/07 05:26:08;;;;;;;14.68;8.77;;;;;;;;;;5051941;28;20049;-78
2022/01/07 05:28:34;;;;;;;15.75;8.57;;;;;;;;;;5048995;28;20095;-78
2022/01/07 05:31:03;;;;;;;18.50;9.40;;;;;;;;;;5055541;28;20076;-78
2022/01/07 05:33:29;;;;;;;17.70;9.20;;;;;;;;;;5049055;28;20485;-78
2022/01/07 05:35:55;;;;;;;18.45;9.23;;;;;;;;;;5048580;28;20473;-78
2022/01/07 05:38:21;;;;;;;17.90;9.70;;;;;;;;;;5065658;28;20095;-78
2022/01/07 05:40:47;;;;;;;16.08;9.20;;;;;;;;;;5049271;28;20075;-78
2022/01/07 05:43:13;;;;;;;14.98;9.45;;;;;;;;;;5050173;28;20104;-80
2022/01/07 05:45:40;;;;;;;16.65;9.55;;;;;;;;;;5083231;28;20037;-78
2022/01/07 05:48:07;;;;;;;14.32;9.15;;;;;;;;;;5050846;28;20045;-80
2022/01/07 05:50:33;;;;;;;16.25;10.20;;;;;;;;;;5061741;28;20051;-80
2022/01/07 05:52:59;;;;;;;17.85;9.00;;;;;;;;;;5046296;28;20377;-81
2022/01/07 05:55:25;;;;;;;16.23;9.15;;;;;;;;;;5050544;28;20389;-80
2022/01/07 05:57:51;;;;;;;16.05;9.35;;;;;;;;;;5048003;28;20070;-80
2022/01/07 06:00:18;;;;;;;16.15;9.30;;;;;;;;;;5048242;28;20094;-80
2022/01/07 06:02:44;;;;;;;16.40;9.57;;;;;;;;;;5064965;28;20048;-80
2022/01/07 06:05:11;;;;;;;14.93;9.70;;;;;;;;;;5031684;28;20496;-80
2022/01/07 06:07:37;;;;;;;17.88;9.93;;;;;;;;;;5049113;28;20040;-80
2022/01/07 06:10:04;;;;;;;15.73;9.55;;;;;;;;;;5075577;28;20044;-78
2022/01/07 06:12:30;;;;;;;17.55;10.95;;;;;;;;;;5035361;28;20059;-78
2022/01/07 06:14:56;;;;;;;16.27;10.32;;;;;;;;;;5056753;28;20613;-78
2022/01/07 06:17:22;;;;;;;17.40;10.80;;;;;;;;;;5068733;28;20084;-78
2022/01/07 06:19:48;;;;;;;19.08;11.15;;;;;;;;;;5066134;28;20052;-78
2022/01/07 06:22:14;;;;;;;18.05;11.00;;;;;;;;;;5049029;28;20049;-78
2022/01/07 06:24:40;;;;;;;16.35;10.85;;;;;;;;;;5047944;28;20044;-78
2022/01/07 06:27:07;;;;;;;16.23;10.68;;;;;;;;;;5048897;28;20041;-77
2022/01/07 06:29:33;;;;;;;18.00;10.85;;;;;;;;;;5045594;28;20059;-78
2022/01/07 06:31:59;;;;;;;17.60;11.15;;;;;;;;;;5071345;28;20045;-78
2022/01/07 06:34:25;;;;;;;20.20;11.93;;;;;;;;;;5062707;28;20081;-78
2022/01/07 06:36:51;;;;;;;18.35;10.88;;;;;;;;;;5048224;28;20048;-80
2022/01/07 06:39:22;;;;;;;17.17;10.95;;;;;;;;;;5049048;28;20488;-79
2022/01/07 06:41:50;;;;;;;18.85;11.82;;;;;;;;;;5067255;28;20043;-81
2022/01/07 06:44:16;;;;;;;18.23;12.23;;;;;;;;;;5055516;28;20120;-81
2022/01/07 06:46:42;;;;;;;20.95;12.38;;;;;;;;;;5049332;28;20128;-81
2022/01/07 06:49:09;;;;;;;21.17;12.77;;;;;;;;;;5044708;28;20083;-80
2022/01/07 06:51:35;;;;;;;20.50;12.48;;;;;;;;;;5040118;28;20087;-80
2022/01/07 06:54:01;;;;;;;23.95;12.45;;;;;;;;;;5062815;28;20454;-81
2022/01/07 06:56:28;;;;;;;23.05;13.75;;;;;;;;;;5067886;28;20044;-80
2022/01/07 06:58:55;;;;;;;22.13;13.57;;;;;;;;;;5050351;28;20045;-80
2022/01/07 07:01:21;;;;;;;25.45;14.63;;;;;;;;;;5047077;28;20078;-80
2022/01/07 07:03:47;;;;;;;23.95;13.90;;;;;;;;;;5066262;28;20041;-80
2022/01/07 07:06:13;;;;;;;28.85;14.27;;;;;;;;;;5068455;28;20066;-80
2022/01/07 07:08:40;;;;;;;28.25;15.50;;;;;;;;;;5050755;28;20075;-81
2022/01/07 07:11:06;;;;;;;27.05;16.00;;;;;;;;;;5065176;28;20045;-80
2022/01/07 07:13:32;;;;;;;25.00;14.52;;;;;;;;;;5062133;28;20474;-80
2022/01/07 07:15:59;;;;;;;23.90;15.57;;;;;;;;;;5039769;28;20028;-80
2022/01/07 07:18:25;;;;;;;26.05;15.45;;;;;;;;;;5062516;28;20481;-81
2022/01/07 07:20:51;;;;;;;25.65;14.48;;;;;;;;;;5051085;28;20067;-81
2022/01/07 07:23:17;;;;;;;26.45;14.57;;;;;;;;;;5052053;28;20497;-80
2022/01/07 07:25:43;;;;;;;26.08;15.57;;;;;;;;;;5085382;28;20040;-79
2022/01/07 07:28:09;;;;;;;29.40;16.83;;;;;;;;;;5051773;28;20094;-78
2022/01/07 07:30:39;;;;;;;30.13;15.65;;;;;;;;;;5055068;28;20037;-78
2022/01/07 07:33:56;;;;;;;27.73;16.73;;;;;;;;;;5041563;28;20028;-78
2022/01/07 07:38:41;;;;;;;;;;;;;;;;;;5085395;28;20812;-79
2022/01/07 07:41:07;;;;;;;25.98;14.50;;;;;;;;;;5050737;28;19982;-78
2022/01/07 07:43:34;;;;;;;30.13;16.73;;;;;;;;;;5051081;28;20037;-80
2022/01/07 07:46:00;;;;;;;31.45;16.90;;;;;;;;;;5050878;28;20053;-81
2022/01/07 07:48:26;;;;;;;31.08;17.45;;;;;;;;;;5066737;28;20037;-80
2022/01/07 07:50:52;;;;;;;31.80;17.42;;;;;;;;;;5049870;28;20098;-79
2022/01/07 07:53:18;;;;;;;33.05;18.40;;;;;;;;;;5050027;28;20401;-78
2022/01/07 07:55:52;;;;;;;32.55;17.80;;;;;;;;;;5051634;28;20041;-78
2022/01/07 07:58:18;;;;;;;33.40;16.70;;;;;;;;;;5048954;28;20488;-78
2022/01/07 08:00:46;;;;;;;33.70;18.10;;;;;;;;;;5049865;28;20045;-79
2022/01/07 08:03:12;;;;;;;36.00;18.25;;;;;;;;;;5097548;28;20056;-78
2022/01/07 08:05:38;;;;;;;35.55;19.15;;;;;;;;;;5033163;28;20083;-80
2022/01/07 08:08:04;;;;;;;36.53;19.20;;;;;;;;;;5050152;28;20404;-81
2022/01/07 08:10:31;;;;;;;36.05;19.13;;;;;;;;;;5065486;28;20040;-79
2022/01/07 08:18:24;;;;;;;39.65;19.70;;;;;;;;;;5059337;28;20056;-78
2022/01/07 08:20:53;;;;;;;34.80;19.27;;;;;;;;;;5054223;28;20481;-78
2022/01/07 08:23:19;;;;;;;38.70;19.67;;;;;;;;;;5049916;28;20044;-78
2022/01/07 08:25:46;;;;;;;35.88;18.67;;;;;;;;;;5066564;28;20059;-78
2022/01/07 08:28:14;;;;;;;36.15;19.20;;;;;;;;;;5050823;28;20045;-79
2022/01/07 08:36:09;;;;;;;37.75;20.52;;;;;;;;;;5082996;28;20037;-80
2022/01/07 08:38:36;;;;;;;40.45;20.20;;;;;;;;;;5049212;28;20116;-80
2022/01/07 08:41:02;;;;;;;37.60;19.13;;;;;;;;;;5049624;28;20049;-80
2022/01/07 08:43:28;;;;;;;38.85;19.83;;;;;;;;;;5054582;28;20087;-78
2022/01/07 08:45:54;;;;;;;37.85;19.92;;;;;;;;;;5057141;28;20075;-78
2022/01/07 08:48:20;;;;;;;38.00;19.02;;;;;;;;;;5049306;28;20555;-80
2022/01/07 08:50:46;;;;;;;36.55;19.75;;;;;;;;;;5042369;28;20050;-81
2022/01/07 08:53:12;;;;;;;42.15;19.25;;;;;;;;;;5069326;28;20040;-80
2022/01/07 08:55:39;;;;;;;35.95;18.75;;;;;;;;;;5061175;28;20037;-81
2022/01/07 08:58:06;;;;;;;34.08;18.23;;;;;;;;;;5049808;28;20041;-81
2022/01/07 09:00:32;;;;;;;42.25;19.38;;;;;;;;;;5049721;28;20518;-81
2022/01/07 09:02:58;;;;;;;35.17;18.88;;;;;;;;;;5049422;28;20037;-81
2022/01/07 09:05:24;;;;;;;39.05;19.58;;;;;;;;;;5049418;28;20480;-81
2022/01/07 09:07:51;;;;;;;41.67;19.80;;;;;;;;;;5048208;28;20167;-78
2022/01/07 09:10:17;;;;;;;38.65;19.67;;;;;;;;;;5060635;28;20055;-78
2022/01/07 09:12:43;;;;;;;35.05;18.95;;;;;;;;;;5033476;28;20389;-78
2022/01/07 09:15:09;;;;;;;39.83;19.55;;;;;;;;;;5049510;28;20045;-79
2022/01/07 09:17:35;;;;;;;37.45;18.80;;;;;;;;;;5063029;28;20040;-78
2022/01/07 09:20:02;;;;;;;28.45;16.15;;;;;;;;;;5057863;28;20601;-81
2022/01/07 09:22:28;;;;;;;14.57;7.45;;;;;;;;;;5053929;28;20048;-80
2022/01/07 09:24:54;;;;;;;7.35;2.30;;;;;;;;;;5065123;28;20104;-80
2022/01/07 09:27:20;;;;;;;3.97;1.45;;;;;;;;;;5032896;28;20049;-79
2022/01/07 09:29:46;;;;;;;5.25;1.60;;;;;;;;;;5048918;28;20045;-80
2022/01/07 09:32:12;;;;;;;3.90;1.42;;;;;;;;;;5072537;28;20053;-80
2022/01/07 09:34:39;;;;;;;4.15;1.70;;;;;;;;;;5049666;28;20463;-81
2022/01/07 09:37:05;;;;;;;3.13;1.10;;;;;;;;;;5050729;28;20080;-79
2022/01/07 09:39:32;;;;;;;4.47;1.45;;;;;;;;;;5051133;28;20115;-79
2022/01/07 09:42:02;;;;;;;3.63;1.20;;;;;;;;;;5069461;28;20388;-80
2022/01/07 09:44:29;;;;;;;4.07;1.20;;;;;;;;;;5055450;28;20623;-80
2022/01/07 09:46:55;;;;;;;3.53;1.48;;;;;;;;;;5063682;28;20076;-80
2022/01/07 09:49:21;;;;;;;5.55;1.52;;;;;;;;;;5049244;28;20045;-79
2022/01/07 09:51:47;;;;;;;7.85;1.60;;;;;;;;;;5064758;28;20033;-80
2022/01/07 09:54:13;;;;;;;6.18;1.90;;;;;;;;;;5031736;28;20041;-80
2022/01/07 09:56:39;;;;;;;5.50;1.90;;;;;;;;;;5051208;28;20037;-81
2022/01/07 09:59:07;;;;;;;8.15;2.25;;;;;;;;;;5070074;28;20048;-81
2022/01/07 10:01:52;;;;;;;5.75;2.47;;;;;;;;;;5053822;28;20053;-81
2022/01/07 10:04:25;;;;;;;8.23;2.90;;;;;;;;;;5048216;28;20091;-80
2022/01/07 10:07:09;;;;;;;6.47;2.85;;;;;;;;;;5064587;28;20037;-79
2022/01/07 10:09:35;;;;;;;7.60;3.50;;;;;;;;;;5071000;28;20049;-79
2022/01/07 10:12:02;;;;;;;9.75;4.13;;;;;;;;;;5054758;28;20055;-80
2022/01/07 10:14:30;;;;;;;12.38;4.93;;;;;;;;;;5048900;28;20041;-80
2022/01/07 10:17:00;;;;;;;10.75;4.57;;;;;;;;;;5047867;28;20068;-79
2022/01/07 10:19:29;;;;;;;11.10;4.78;;;;;;;;;;5062266;28;20120;-79
2022/01/07 10:21:56;;;;;;;10.80;4.80;;;;;;;;;;5067417;28;20075;-80
2022/01/07 10:24:22;;;;;;;11.80;5.20;;;;;;;;;;5054079;28;20051;-79
2022/01/07 10:27:08;;;;;;;12.45;4.97;;;;;;;;;;5052521;28;20489;-79
2022/01/07 10:29:37;;;;;;;12.73;5.82;;;;;;;;;;5052861;28;20045;-79
2022/01/07 10:32:19;;;;;;;13.85;5.50;;;;;;;;;;5058855;28;20052;-79
2022/01/07 10:35:24;;;;;;;14.85;6.18;;;;;;;;;;5052215;28;20033;-79
2022/01/07 10:37:53;;;;;;;12.23;5.75;;;;;;;;;;5048578;28;20068;-79
2022/01/07 10:40:21;;;;;;;15.02;6.38;;;;;;;;;;5054821;28;20119;-79
2022/01/07 10:42:47;;;;;;;13.38;6.55;;;;;;;;;;5052235;28;20088;-79
2022/01/07 10:45:13;;;;;;;9.80;5.88;;;;;;;;;;5053785;28;20033;-79
2022/01/07 10:47:39;;;;;;;14.07;6.20;;;;;;;;;;5051472;28;20037;-80
2022/01/07 10:50:15;;;;;;;15.93;7.00;;;;;;;;;;5058114;28;20460;-80
2022/01/07 10:52:41;;;;;;;19.42;7.95;;;;;;;;;;5061601;28;20408;-80
2022/01/07 10:55:18;;;;;;;16.27;7.78;;;;;;;;;;5051735;28;20068;-81
2022/01/07 10:57:46;;;;;;;20.77;8.27;;;;;;;;;;5063087;28;20484;-81
2022/01/07 11:00:13;;;;;;;17.80;8.98;;;;;;;;;;5057195;28;20048;-81
2022/01/07 11:02:40;;;;;;;21.85;9.43;;;;;;;;;;5071827;28;20044;-81
2022/01/07 11:05:07;;;;;;;20.83;10.75;;;;;;;;;;5056432;28;20061;-80
2022/01/07 11:07:33;;;;;;;21.23;11.07;;;;;;;;;;5068191;28;20480;-81
2022/01/07 11:09:59;;;;;;;18.23;10.07;;;;;;;;;;5060553;28;20041;-79
2022/01/07 11:12:27;;;;;;;19.98;10.35;;;;;;;;;;5052502;28;20045;-81
2022/01/07 11:14:53;;;;;;;21.17;10.13;;;;;;;;;;5060344;28;20496;-79
2022/01/07 11:17:22;;;;;;;23.77;11.57;;;;;;;;;;5056716;28;20052;-80
2022/01/07 11:19:53;;;;;;;19.73;9.70;;;;;;;;;;5070966;28;20071;-81
2022/01/07 11:22:22;;;;;;;19.33;9.77;;;;;;;;;;5071618;28;20049;-81
2022/01/07 11:25:11;;;;;;;16.23;9.13;;;;;;;;;;5048921;28;20516;-80
2022/01/07 11:27:46;;;;;;;16.23;8.32;;;;;;;;;;5062511;28;20139;-81
2022/01/07 11:30:15;;;;;;;17.38;7.65;;;;;;;;;;5063191;28;20107;-81
2022/01/07 11:32:44;;;;;;;13.02;5.38;;;;;;;;;;5055488;28;20056;-79
2022/01/07 11:35:19;;;;;;;12.55;4.47;;;;;;;;;;5057865;28;20037;-79
2022/01/07 11:37:45;;;;;;;10.02;3.00;;;;;;;;;;5039638;28;20501;-79
2022/01/07 11:40:31;;;;;;;8.38;2.10;;;;;;;;;;5057360;28;20559;-81
2022/01/07 11:42:59;;;;;;;5.82;1.70;;;;;;;;;;5070492;28;20438;-81
2022/01/07 11:45:34;;;;;;;5.28;1.23;;;;;;;;;;5054228;28;20102;-80
2022/01/07 11:48:14;;;;;;;7.47;1.40;;;;;;;;;;5056857;28;20146;-80
2022/01/07 11:50:47;;;;;;;5.78;1.40;;;;;;;;;;5062142;28;20303;-80
2022/01/07 11:53:13;;;;;;;4.65;1.20;;;;;;;;;;5066692;28;20170;-80
2022/01/07 11:55:41;;;;;;;9.63;1.52;;;;;;;;;;5071420;28;20537;-81
2022/01/07 11:58:11;;;;;;;7.25;1.33;;;;;;;;;;5057093;28;20049;-79
2022/01/07 12:00:56;;;;;;;6.97;1.10;;;;;;;;;;5057872;28;20577;-80
2022/01/07 12:03:39;;;;;;;7.45;1.48;;;;;;;;;;5071160;28;20055;-81
2022/01/07 12:06:24;;;;;;;12.40;1.70;;;;;;;;;;5051521;28;20049;-81
2022/01/07 12:08:59;;;;;;;7.35;1.60;;;;;;;;;;5067420;28;20049;-81
2022/01/07 12:11:30;;;;;;;5.80;1.47;;;;;;;;;;5062589;28;20037;-81
2022/01/07 12:13:56;;;;;;;9.55;1.85;;;;;;;;;;5050506;28;20291;-80
2022/01/07 12:16:27;;;;;;;13.52;2.25;;;;;;;;;;5068171;28;20529;-81
2022/01/07 12:19:02;;;;;;;8.02;1.80;;;;;;;;;;5047192;28;20124;-81
2022/01/07 12:21:28;;;;;;;8.77;2.03;;;;;;;;;;5050487;28;20106;-79
2022/01/07 12:24:10;;;;;;;6.82;1.80;;;;;;;;;;5066244;28;20073;-79
2022/01/07 12:26:37;;;;;;;11.60;2.05;;;;;;;;;;5050996;28;20605;-79
2022/01/07 12:29:03;;;;;;;8.02;2.00;;;;;;;;;;5049600;28;20080;-79
2022/01/07 12:31:29;;;;;;;7.40;2.10;;;;;;;;;;5056109;28;20049;-79
2022/01/07 12:33:57;;;;;;;8.57;2.10;;;;;;;;;;5048905;28;20439;-79
2022/01/07 12:36:33;;;;;;;6.30;2.03;;;;;;;;;;5063287;28;20073;-79
2022/01/07 12:38:59;;;;;;;5.25;1.58;;;;;;;;;;5065808;28;20041;-81
2022/01/07 12:41:25;;;;;;;11.77;2.60;;;;;;;;;;5046930;28;20044;-80
2022/01/07 12:44:04;;;;;;;9.68;2.80;;;;;;;;;;5073941;28;20488;-81
2022/01/07 12:46:30;;;;;;;9.23;2.35;;;;;;;;;;5067114;28;20040;-81
2022/01/07 12:48:56;;;;;;;8.13;2.70;;;;;;;;;;5057333;28;20526;-81
2022/01/07 12:51:22;;;;;;;7.70;2.85;;;;;;;;;;5056352;28;20107;-81
2022/01/07 12:53:59;;;;;;;9.93;2.60;;;;;;;;;;5069088;28;20036;-81
2022/01/07 12:56:26;;;;;;;5.80;2.70;;;;;;;;;;5056572;28;20083;-78
2022/01/07 12:58:53;;;;;;;9.68;3.10;;;;;;;;;;5054565;28;20090;-79
2022/01/07 13:01:23;;;;;;;10.60;3.65;;;;;;;;;;5040086;28;20041;-79
2022/01/07 13:04:00;;;;;;;13.02;4.05;;;;;;;;;;5062449;28;20048;-78
2022/01/07 13:06:26;;;;;;;12.32;4.63;;;;;;;;;;5049414;28;20109;-79
2022/01/07 13:08:52;;;;;;;12.70;4.20;;;;;;;;;;5063080;28;20045;-78
2022/01/07 13:11:22;;;;;;;14.57;4.40;;;;;;;;;;5045270;28;20048;-79
2022/01/07 13:14:01;;;;;;;13.27;4.68;;;;;;;;;;5048297;28;20438;-79
2022/01/07 13:16:28;;;;;;;14.32;4.28;;;;;;;;;;5049375;28;20492;-79
2022/01/07 13:19:00;;;;;;;13.02;4.72;;;;;;;;;;5048776;28;20098;-79
2022/01/07 13:21:26;;;;;;;12.05;4.50;;;;;;;;;;5048947;28;20127;-79
2022/01/07 13:23:56;;;;;;;9.10;4.38;;;;;;;;;;5048356;28;20044;-79
2022/01/07 13:26:24;;;;;;;14.73;4.57;;;;;;;;;;5080098;28;20051;-81
2022/01/07 13:28:51;;;;;;;8.68;4.07;;;;;;;;;;5059346;28;20060;-80
2022/01/07 13:31:19;;;;;;;11.05;4.18;;;;;;;;;;5068528;28;20055;-81
2022/01/07 13:33:45;;;;;;;12.75;4.13;;;;;;;;;;5052000;28;20430;-80
2022/01/07 13:36:13;;;;;;;13.93;4.47;;;;;;;;;;5054742;28;20064;-80
2022/01/07 13:38:39;;;;;;;10.98;4.75;;;;;;;;;;5043976;28;20480;-80
2022/01/07 13:41:10;;;;;;;13.55;5.15;;;;;;;;;;5048612;28;20652;-81
2022/01/07 13:43:41;;;;;;;17.08;5.75;;;;;;;;;;5065327;28;20124;-81
2022/01/07 13:46:08;;;;;;;17.67;6.47;;;;;;;;;;5048682;28;20104;-80
2022/01/07 13:48:34;;;;;;;17.23;6.03;;;;;;;;;;5065144;28;20036;-80
2022/01/07 13:51:10;;;;;;;12.52;5.82;;;;;;;;;;5049020;28;20076;-80
2022/01/07 13:53:36;;;;;;;15.80;5.25;;;;;;;;;;5053104;28;20097;-80
2022/01/07 13:56:06;;;;;;;16.80;5.25;;;;;;;;;;5044237;28;20048;-80
2022/01/07 13:58:32;;;;;;;13.30;4.72;;;;;;;;;;5069278;28;20036;-80
2022/01/07 14:01:05;;;;;;;16.55;4.53;;;;;;;;;;5052067;28;20132;-80
2022/01/07 14:03:47;;;;;;;12.35;4.45;;;;;;;;;;5053709;28;20063;-80
2022/01/07 14:06:17;;;;;;;16.67;5.57;;;;;;;;;;5052409;28;20106;-80
2022/01/07 14:08:44;;;;;;;14.73;5.35;;;;;;;;;;5065965;28;20116;-80
2022/01/07 14:11:14;;;;;;;16.67;4.15;;;;;;;;;;5066130;28;20040;-80
2022/01/07 14:13:40;;;;;;;15.85;3.50;;;;;;;;;;5068549;28;20076;-81
2022/01/07 14:16:06;;;;;;;13.10;3.30;;;;;;;;;;5052003;28;20040;-80
2022/01/07 14:18:36;;;;;;;16.52;3.05;;;;;;;;;;5052265;28;20048;-81
2022/01/07 14:21:04;;;;;;;12.88;2.55;;;;;;;;;;5066220;28;20131;-80
2022/01/07 14:23:39;;;;;;;15.55;2.83;;;;;;;;;;5068928;28;20542;-80
2022/01/07 14:26:10;;;;;;;12.10;2.27;;;;;;;;;;5049324;28;20046;-80
2022/01/07 14:28:40;;;;;;;11.60;2.30;;;;;;;;;;5051992;28;20044;-80
2022/01/07 14:31:07;;;;;;;13.15;2.10;;;;;;;;;;5082111;28;20056;-80
2022/01/07 14:33:34;;;;;;;11.38;2.45;;;;;;;;;;5052032;28;20049;-81
2022/01/07 14:36:00;;;;;;;12.40;2.03;;;;;;;;;;5051937;28;20099;-80
2022/01/07 14:38:27;;;;;;;11.73;2.05;;;;;;;;;;5068557;28;20033;-80
2022/01/07 14:40:53;;;;;;;13.77;2.60;;;;;;;;;;5051628;28;20077;-81
2022/01/07 14:43:19;;;;;;;10.60;2.55;;;;;;;;;;5051658;28;20124;-81
2022/01/07 14:45:47;;;;;;;13.85;2.00;;;;;;;;;;5061562;28;20047;-81
2022/01/07 14:48:14;;;;;;;11.57;1.92;;;;;;;;;;5054766;28;20047;-80